Flight Track Log - Related Links

Times and Time Zones

All times are in EDT time to prevent confusion due to time zone crossing. See the KAP910 flight status page for this flight to view local times or setup timezone preferences in your user account.

Time Position Orientation Groundspeed Altitude Reporting Facility
EDT Latitude Longitude Course Direction KTS MPH feet Rate Location/Type
Tue 11:38:00 AM 41.8276 -70.2432 North  Level FlightAware Approximate
Tue 11:39:00 AM 41.8545 -70.2402 North  Level FlightAware Approximate
Tue 11:40:00 AM 41.8814 -70.2373 North  Level FlightAware Approximate
Tue 11:41:00 AM 41.9083 -70.2343 North  Level FlightAware Approximate
Tue 11:42:00 AM 41.9350 -70.2288 11° North  Level FlightAware Approximate
Tue 11:43:00 AM 41.9615 -70.2221 11° North  Level FlightAware Approximate
Tue 11:44:00 AM 41.9881 -70.2167 North  Level FlightAware Approximate
Tue 11:45:00 AM 42.0151 -70.2167 North  Level FlightAware Approximate
Tue 11:46:00 AM 42.0421 -70.2167 North  Level FlightAware Approximate
Tue 11:47:00 AM 42.0667 -70.2167 North  Level FlightAware Approximate
Tue 11:48:00 AM 42.0723 -70.2207 North  Level Estimated
Tue 11:49:00 AM 42.0667 -70.2167 North  Level FlightAware Approximate
Tue 11:50:00 AM 42.0723 -70.2207 North  Level Estimated
Tue 11:51:00 AM 42.0667 -70.2167 North  Level FlightAware Approximate
Tue 11:52:00 AM 42.0723 -70.2207 North  Level Estimated
Tue 11:53:00 AM 42.0667 -70.2167 North  Level FlightAware Approximate
Tue 11:54:00 AM 42.0723 -70.2207 North  Level Estimated
Tue 11:55:00 AM 42.0667 -70.2167 North  Level FlightAware Approximate
Tue 11:56:00 AM 42.0723 -70.2207 North  Level Estimated
Tue 11:57:00 AM 42.0667 -70.2167 North  Level FlightAware Approximate
Tue 11:58:00 AM 42.0723 -70.2207 North  Level Estimated

Login

Don't have an account? Register now (free) for customized features, flight alerts, and more!